Time;durP1;ratioP1;P1;durP2;ratioP2;P2;SDS_P1;SDS_P2;PMS_P1;PMS_P2;Temp;Humidity;BMP_temperature;BMP_pressure;BME280_temperature;BME280_humidity;BME280_pressure;Samples;Min_cycle;Max_cycle;Signal;HPM_P1;HPM_P2
2021/07/10 00:01:43;;;;;;;42.67;27.50;;;17.20;99.90;;;;;;5032274;28;20025;-55
2021/07/10 00:04:08;;;;;;;44.03;27.88;;;17.30;99.90;;;;;;5032493;28;20387;-55
2021/07/10 00:06:34;;;;;;;33.53;23.77;;;17.20;99.90;;;;;;5032841;28;20022;-55
2021/07/10 00:08:59;;;;;;;31.10;22.92;;;17.00;99.90;;;;;;5032250;28;20035;-55
2021/07/10 00:11:25;;;;;;;34.08;23.33;;;16.90;99.90;;;;;;5032290;28;20017;-55
2021/07/10 00:13:51;;;;;;;29.98;22.50;;;16.90;99.90;;;;;;5032387;28;20026;-55
2021/07/10 00:16:16;;;;;;;33.85;23.30;;;16.80;99.90;;;;;;5029940;28;20386;-55
2021/07/10 00:18:42;;;;;;;31.25;21.35;;;16.70;99.90;;;;;;5032187;28;20385;-55
2021/07/10 00:21:07;;;;;;;32.20;22.02;;;16.60;99.90;;;;;;5031838;28;20037;-55
2021/07/10 00:23:34;;;;;;;34.05;23.70;;;16.60;99.90;;;;;;5032333;28;20026;-55
2021/07/10 00:26:00;;;;;;;46.40;28.23;;;16.60;99.90;;;;;;5030605;28;20018;-55
2021/07/10 00:28:25;;;;;;;44.78;28.55;;;16.60;99.90;;;;;;5031895;28;20029;-55
2021/07/10 00:30:51;;;;;;;45.03;26.67;;;16.70;99.90;;;;;;5032023;28;20096;-56
2021/07/10 00:33:17;;;;;;;37.85;24.70;;;16.60;99.90;;;;;;5031683;28;20041;-55
2021/07/10 00:35:42;;;;;;;39.45;26.02;;;16.50;99.90;;;;;;5031679;28;20414;-55
2021/07/10 00:38:08;;;;;;;41.50;25.52;;;16.40;99.90;;;;;;5031774;28;20037;-55
2021/07/10 00:40:34;;;;;;;34.00;23.27;;;16.30;99.90;;;;;;5031692;28;20053;-55
2021/07/10 00:42:59;;;;;;;46.78;26.25;;;16.30;99.90;;;;;;5031702;28;20025;-55
2021/07/10 00:45:25;;;;;;;42.70;27.75;;;16.40;99.90;;;;;;5031671;28;20018;-55
2021/07/10 00:47:51;;;;;;;43.95;27.67;;;16.40;99.90;;;;;;5031611;28;20021;-55
2021/07/10 00:50:22;;;;;;;39.67;24.45;;;16.40;99.90;;;;;;5031589;28;20141;-56
2021/07/10 00:52:48;;;;;;;39.88;25.42;;;16.40;99.90;;;;;;5031495;28;20083;-55
2021/07/10 00:55:14;;;;;;;43.03;26.35;;;16.50;99.90;;;;;;5031513;28;20038;-55
2021/07/10 00:57:41;;;;;;;38.70;26.40;;;16.50;99.90;;;;;;5030156;28;20029;-55
2021/07/10 01:00:21;;;;;;;37.30;25.88;;;16.40;99.90;;;;;;5031281;28;20075;-55
2021/07/10 01:02:48;;;;;;;29.48;21.75;;;16.40;99.90;;;;;;5031293;28;20502;-55
2021/07/10 01:05:21;;;;;;;35.38;24.02;;;16.20;99.90;;;;;;5031354;28;20045;-55
2021/07/10 01:07:47;;;;;;;35.67;22.83;;;16.10;99.90;;;;;;5031293;28;20386;-55
2021/07/10 01:10:13;;;;;;;40.03;24.52;;;16.20;99.90;;;;;;5031246;28;20037;-55
2021/07/10 01:12:40;;;;;;;35.83;25.38;;;16.20;99.90;;;;;;5031196;28;20025;-55
2021/07/10 01:15:08;;;;;;;37.25;26.60;;;16.20;99.90;;;;;;5031326;28;20532;-55
2021/07/10 01:17:34;;;;;;;39.30;25.98;;;16.20;99.90;;;;;;5031531;28;20101;-55
2021/07/10 01:20:06;;;;;;;41.40;26.90;;;16.20;99.90;;;;;;5031080;28;20578;-55
2021/07/10 01:22:32;;;;;;;39.55;25.88;;;16.20;99.90;;;;;;5031251;28;20104;-55
2021/07/10 01:24:58;;;;;;;40.25;25.02;;;16.30;99.90;;;;;;5031185;28;20018;-55
2021/07/10 01:27:23;;;;;;;32.28;22.13;;;16.20;99.90;;;;;;5030801;28;20028;-55
2021/07/10 01:29:51;;;;;;;32.47;23.33;;;16.20;99.90;;;;;;5031047;28;20106;-55
2021/07/10 01:32:18;;;;;;;27.85;20.70;;;16.10;99.90;;;;;;5030945;28;20101;-55
2021/07/10 01:34:45;;;;;;;33.88;22.23;;;16.10;99.90;;;;;;5031227;28;20029;-55
2021/07/10 01:37:13;;;;;;;31.63;22.08;;;16.10;99.90;;;;;;5029504;28;20079;-55
2021/07/10 01:39:39;;;;;;;33.58;22.23;;;16.20;99.90;;;;;;5030884;28;20029;-55
2021/07/10 01:42:05;;;;;;;28.05;20.63;;;16.20;99.90;;;;;;5030918;28;20060;-55
2021/07/10 01:44:30;;;;;;;31.65;22.13;;;16.10;99.90;;;;;;5029736;28;20065;-55
2021/07/10 01:46:56;;;;;;;31.58;23.05;;;16.00;99.90;;;;;;5029742;28;20056;-55
2021/07/10 01:49:22;;;;;;;36.40;24.70;;;16.10;99.90;;;;;;5030725;28;20079;-55
2021/07/10 01:51:48;;;;;;;31.25;21.85;;;16.20;99.90;;;;;;5030732;28;20021;-55
2021/07/10 01:54:13;;;;;;;31.08;21.38;;;16.20;99.90;;;;;;5029498;28;20495;-55
2021/07/10 01:56:39;;;;;;;29.98;21.88;;;16.10;99.90;;;;;;5030815;28;20033;-55
2021/07/10 01:59:05;;;;;;;25.95;18.52;;;16.00;99.90;;;;;;5030705;28;20021;-55
2021/07/10 02:01:32;;;;;;;25.83;20.30;;;16.00;99.90;;;;;;5030611;28;20025;-55
2021/07/10 02:04:01;;;;;;;31.73;21.95;;;16.00;99.90;;;;;;5030864;28;20021;-55
2021/07/10 02:06:27;;;;;;;31.30;21.95;;;16.00;99.90;;;;;;5030844;28;20056;-55
2021/07/10 02:08:53;;;;;;;31.05;22.85;;;16.00;99.90;;;;;;5030572;28;20025;-55
2021/07/10 02:11:19;;;;;;;33.58;22.52;;;16.10;99.90;;;;;;5030565;28;20026;-55
2021/07/10 02:13:45;;;;;;;31.77;23.38;;;16.10;99.90;;;;;;5030731;28;20033;-55
2021/07/10 02:16:11;;;;;;;32.35;23.20;;;16.00;99.90;;;;;;5030551;28;20087;-55
2021/07/10 02:18:37;;;;;;;28.55;20.98;;;16.00;99.90;;;;;;5031073;28;20037;-55
2021/07/10 02:21:04;;;;;;;31.25;21.17;;;15.90;99.90;;;;;;5029174;28;20025;-55
2021/07/10 02:23:29;;;;;;;25.20;19.13;;;15.90;99.90;;;;;;5030624;28;20035;-54
2021/07/10 02:25:56;;;;;;;27.17;18.75;;;15.80;99.90;;;;;;5030399;28;20026;-55
2021/07/10 02:28:21;;;;;;;28.15;21.05;;;15.80;99.90;;;;;;5029062;28;20029;-54
2021/07/10 02:30:48;;;;;;;32.10;21.73;;;15.70;99.90;;;;;;5030417;28;20390;-55
2021/07/10 02:33:13;;;;;;;28.30;21.27;;;15.70;99.90;;;;;;5030301;28;20054;-55
2021/07/10 02:35:39;;;;;;;33.83;20.88;;;15.60;99.90;;;;;;5030389;28;20036;-55
2021/07/10 02:38:05;;;;;;;38.85;22.40;;;15.60;99.90;;;;;;5029082;28;20021;-54
2021/07/10 02:40:31;;;;;;;38.70;22.52;;;15.50;99.90;;;;;;5032757;28;20029;-54
2021/07/10 02:42:57;;;;;;;32.35;20.33;;;15.50;99.90;;;;;;5034131;28;20025;-55
2021/07/10 02:45:23;;;;;;;25.52;17.13;;;15.40;99.90;;;;;;5032769;28;20357;-54
2021/07/10 02:47:49;;;;;;;22.15;17.70;;;15.30;99.90;;;;;;5034043;28;20422;-55
2021/07/10 02:50:19;;;;;;;20.92;16.10;;;15.30;99.90;;;;;;5033774;28;20029;-55
2021/07/10 02:52:44;;;;;;;20.38;16.70;;;15.20;99.90;;;;;;5033911;28;20065;-54
2021/07/10 02:55:10;;;;;;;21.63;18.42;;;15.30;99.90;;;;;;5033788;28;20492;-55
2021/07/10 02:57:36;;;;;;;21.92;18.00;;;15.50;99.90;;;;;;5033544;28;20035;-55
2021/07/10 03:00:06;;;;;;;20.40;17.17;;;15.60;99.90;;;;;;5033411;28;20021;-55
2021/07/10 03:02:32;;;;;;;21.52;16.52;;;15.70;99.90;;;;;;5033485;28;20075;-55
2021/07/10 03:04:58;;;;;;;21.27;16.65;;;15.90;99.90;;;;;;5033580;28;20021;-55
2021/07/10 03:07:23;;;;;;;22.63;16.73;;;16.00;99.90;;;;;;5033787;28;20057;-55
2021/07/10 03:09:49;;;;;;;18.25;14.98;;;16.00;99.90;;;;;;5033312;28;20026;-55
2021/07/10 03:12:14;;;;;;;19.15;15.73;;;16.00;99.90;;;;;;5033482;28;20492;-54
2021/07/10 03:14:40;;;;;;;22.02;17.88;;;16.10;99.90;;;;;;5033554;28;20084;-55
2021/07/10 03:17:06;;;;;;;22.45;18.30;;;16.30;99.90;;;;;;5033508;28;20843;-55
2021/07/10 03:19:31;;;;;;;17.05;15.20;;;16.30;99.90;;;;;;5033335;28;20098;-55
2021/07/10 03:21:57;;;;;;;22.27;18.55;;;16.30;99.90;;;;;;5033256;28;20474;-54
2021/07/10 03:24:23;;;;;;;24.60;19.77;;;16.30;99.90;;;;;;5032023;28;20433;-54
2021/07/10 03:26:48;;;;;;;28.02;19.70;;;16.20;99.90;;;;;;5033105;28;20021;-54
2021/07/10 03:29:14;;;;;;;27.17;19.70;;;16.20;99.90;;;;;;5032906;28;20471;-54
2021/07/10 03:31:39;;;;;;;24.63;18.33;;;16.10;99.90;;;;;;5033219;28;20053;-55
2021/07/10 03:34:05;;;;;;;20.58;16.70;;;16.20;99.90;;;;;;5032881;28;20049;-54
2021/07/10 03:36:32;;;;;;;18.60;15.02;;;16.20;99.90;;;;;;5031919;28;20045;-55
2021/07/10 03:38:57;;;;;;;18.65;15.48;;;16.10;99.90;;;;;;5031636;28;20025;-55
2021/07/10 03:41:23;;;;;;;20.30;17.20;;;16.20;99.90;;;;;;5032749;28;20038;-55
2021/07/10 03:43:49;;;;;;;23.13;17.17;;;16.40;99.90;;;;;;5032968;28;20043;-55
2021/07/10 03:46:14;;;;;;;20.10;16.05;;;16.60;99.90;;;;;;5033066;28;20033;-55
2021/07/10 03:48:40;;;;;;;24.30;17.20;;;16.50;99.90;;;;;;5032702;28;20083;-55
2021/07/10 03:51:07;;;;;;;23.35;16.55;;;16.40;99.90;;;;;;5032552;28;20044;-55
2021/07/10 03:53:33;;;;;;;19.83;14.80;;;16.40;99.90;;;;;;5032626;28;20065;-55
2021/07/10 03:56:00;;;;;;;18.92;15.93;;;16.30;99.90;;;;;;5032575;28;20056;-55
2021/07/10 03:58:25;;;;;;;25.80;17.75;;;16.50;99.90;;;;;;5032467;28;20040;-55
2021/07/10 04:00:51;;;;;;;22.75;17.20;;;16.60;99.90;;;;;;5032702;28;20026;-55
2021/07/10 04:03:17;;;;;;;27.80;18.38;;;16.60;99.90;;;;;;5032534;28;20128;-55
2021/07/10 04:05:42;;;;;;;21.35;15.70;;;16.60;99.90;;;;;;5032534;28;20017;-55
2021/07/10 04:08:08;;;;;;;20.27;17.45;;;16.60;99.90;;;;;;5032271;28;20028;-55
2021/07/10 04:10:33;;;;;;;20.58;15.85;;;16.60;99.90;;;;;;5032325;28;20037;-55
2021/07/10 04:12:59;;;;;;;20.65;16.85;;;16.50;99.90;;;;;;5030854;28;20479;-55
2021/07/10 04:15:25;;;;;;;17.58;15.68;;;16.40;99.90;;;;;;5032464;28;20482;-55
2021/07/10 04:17:50;;;;;;;24.17;16.27;;;16.40;99.90;;;;;;5032467;28;20025;-55
2021/07/10 04:20:18;;;;;;;19.25;16.42;;;16.40;99.90;;;;;;5032040;28;20029;-55
2021/07/10 04:22:44;;;;;;;18.48;16.35;;;16.50;99.90;;;;;;5032003;28;20528;-55
2021/07/10 04:25:15;;;;;;;21.77;16.00;;;16.60;99.90;;;;;;5031004;28;20422;-55
2021/07/10 04:27:44;;;;;;;19.80;15.27;;;16.60;99.90;;;;;;5031851;28;20107;-55
2021/07/10 04:30:14;;;;;;;18.45;14.90;;;16.50;99.90;;;;;;5031871;28;20029;-55
2021/07/10 04:32:40;;;;;;;21.17;15.00;;;16.30;99.90;;;;;;5031744;28;20076;-55
2021/07/10 04:35:07;;;;;;;18.73;15.35;;;16.30;99.90;;;;;;5031993;28;20025;-55
2021/07/10 04:37:33;;;;;;;18.50;14.25;;;16.50;99.90;;;;;;5031829;28;20032;-55
2021/07/10 04:39:59;;;;;;;18.35;15.30;;;16.60;99.90;;;;;;5032157;28;20064;-55
2021/07/10 04:42:25;;;;;;;19.60;14.75;;;16.70;99.90;;;;;;5031572;28;20087;-55
2021/07/10 04:44:51;;;;;;;16.17;14.45;;;16.80;99.90;;;;;;5031923;28;20021;-55
2021/07/10 04:47:17;;;;;;;19.30;15.15;;;16.70;99.90;;;;;;5031552;28;20026;-55
2021/07/10 04:49:43;;;;;;;21.25;15.65;;;16.60;99.90;;;;;;5030249;28;20368;-55
2021/07/10 04:52:09;;;;;;;20.92;15.73;;;16.60;99.90;;;;;;5031712;28;20026;-54
2021/07/10 04:54:35;;;;;;;20.05;14.98;;;16.80;99.90;;;;;;5031530;28;20021;-55
2021/07/10 04:57:01;;;;;;;18.02;14.65;;;16.90;99.90;;;;;;5031453;28;20028;-55
2021/07/10 04:59:26;;;;;;;20.00;15.88;;;16.80;99.90;;;;;;5031552;28;20048;-55
2021/07/10 05:01:52;;;;;;;21.00;15.10;;;16.80;99.90;;;;;;5030912;28;20410;-55
2021/07/10 05:04:18;;;;;;;17.45;14.98;;;16.50;99.90;;;;;;5030104;28;20079;-56
2021/07/10 05:06:44;;;;;;;19.23;14.18;;;16.40;99.90;;;;;;5031545;28;20017;-55
2021/07/10 05:09:09;;;;;;;16.17;14.30;;;16.30;99.90;;;;;;5031449;28;20033;-55
2021/07/10 05:11:35;;;;;;;17.00;14.75;;;16.30;99.90;;;;;;5031278;28;20037;-55
2021/07/10 05:14:00;;;;;;;17.45;14.50;;;16.50;99.90;;;;;;5031289;28;20388;-55
2021/07/10 05:16:26;;;;;;;19.13;15.88;;;16.60;99.90;;;;;;5031102;28;20025;-55
2021/07/10 05:18:51;;;;;;;21.08;16.10;;;16.70;99.90;;;;;;5029783;28;20087;-55
2021/07/10 05:21:19;;;;;;;20.88;15.10;;;16.80;99.90;;;;;;5030992;28;20026;-55
2021/07/10 05:23:45;;;;;;;16.08;13.30;;;16.90;99.90;;;;;;5031087;28;20051;-55
2021/07/10 05:26:10;;;;;;;19.58;14.52;;;16.90;99.90;;;;;;5030867;28;20035;-55
2021/07/10 05:28:36;;;;;;;19.25;14.23;;;17.00;99.90;;;;;;5030884;28;20032;-55
2021/07/10 05:31:02;;;;;;;22.85;14.90;;;17.30;99.90;;;;;;5030918;28;20378;-55
2021/07/10 05:33:28;;;;;;;18.63;15.48;;;17.70;99.90;;;;;;5030951;28;20045;-55
2021/07/10 05:35:53;;;;;;;23.42;16.48;;;17.70;99.90;;;;;;5030943;28;20064;-55
2021/07/10 05:38:19;;;;;;;17.08;15.27;;;17.80;99.90;;;;;;5030891;28;20364;-55
2021/07/10 05:40:45;;;;;;;19.92;15.27;;;17.90;99.90;;;;;;5030982;28;20073;-55
2021/07/10 05:43:11;;;;;;;20.13;16.13;;;18.10;99.90;;;;;;5030898;28;20472;-55
2021/07/10 05:45:37;;;;;;;19.40;15.23;;;18.20;99.90;;;;;;5031014;28;20052;-55
2021/07/10 05:48:03;;;;;;;16.65;14.77;;;18.10;99.90;;;;;;5031170;28;20410;-55
2021/07/10 05:50:29;;;;;;;19.60;14.77;;;18.00;99.90;;;;;;5030752;28;20467;-55
2021/07/10 05:52:54;;;;;;;19.13;15.68;;;18.00;99.90;;;;;;5030882;28;20055;-55
2021/07/10 05:55:20;;;;;;;21.25;16.52;;;18.00;99.90;;;;;;5030955;28;20048;-55
2021/07/10 05:57:46;;;;;;;23.95;16.25;;;17.90;99.90;;;;;;5030658;28;20029;-55
2021/07/10 06:00:13;;;;;;;22.80;16.73;;;18.00;99.90;;;;;;5030786;28;20104;-55
2021/07/10 06:02:39;;;;;;;20.38;17.05;;;18.10;99.90;;;;;;5029281;28;20394;-55
2021/07/10 06:05:07;;;;;;;20.50;16.42;;;18.10;99.90;;;;;;5030746;28;20037;-56
2021/07/10 06:07:33;;;;;;;20.20;17.27;;;18.10;99.90;;;;;;5031046;28;20032;-55
2021/07/10 06:09:58;;;;;;;25.60;16.90;;;18.10;99.90;;;;;;5030742;28;20026;-55
2021/07/10 06:12:24;;;;;;;21.27;17.60;;;18.20;99.90;;;;;;5031004;28;20029;-55
2021/07/10 06:14:50;;;;;;;24.98;19.35;;;17.90;99.90;;;;;;5031403;28;20026;-55
2021/07/10 06:17:16;;;;;;;28.00;21.42;;;17.80;99.90;;;;;;5034770;28;20382;-55
2021/07/10 06:19:42;;;;;;;28.30;21.58;;;17.70;99.90;;;;;;5034619;28;20595;-55
2021/07/10 06:22:07;;;;;;;30.42;22.70;;;17.70;99.90;;;;;;5034587;28;20017;-56
2021/07/10 06:24:34;;;;;;;27.77;22.20;;;17.80;99.90;;;;;;5034757;28;20087;-56
2021/07/10 06:27:00;;;;;;;31.50;22.77;;;17.80;99.90;;;;;;5034409;28;20025;-55
2021/07/10 06:29:26;;;;;;;35.03;23.52;;;18.00;99.90;;;;;;5034470;28;20144;-55
2021/07/10 06:31:51;;;;;;;33.20;24.42;;;18.00;99.90;;;;;;5034356;28;20119;-55
2021/07/10 06:34:17;;;;;;;33.97;24.60;;;18.00;99.90;;;;;;5034129;28;20444;-56
2021/07/10 06:36:43;;;;;;;31.45;24.45;;;18.20;99.90;;;;;;5034007;28;20457;-55
2021/07/10 06:39:09;;;;;;;36.63;25.52;;;18.20;99.90;;;;;;5034120;28;20470;-56
2021/07/10 06:41:37;;;;;;;30.40;23.98;;;18.20;99.90;;;;;;5034098;28;20067;-55
2021/07/10 06:44:03;;;;;;;31.83;24.52;;;18.30;99.90;;;;;;5033183;28;20029;-54
2021/07/10 06:46:29;;;;;;;32.72;24.33;;;18.40;99.90;;;;;;5033952;28;20033;-55
2021/07/10 06:48:55;;;;;;;31.85;25.30;;;18.50;99.90;;;;;;5033930;28;20482;-55
2021/07/10 06:51:20;;;;;;;33.70;25.33;;;18.50;99.90;;;;;;5032871;28;20429;-54
2021/07/10 06:53:46;;;;;;;32.65;23.58;;;18.50;99.90;;;;;;5033952;28;20061;-55
2021/07/10 06:56:12;;;;;;;32.17;24.17;;;18.60;99.90;;;;;;5034143;28;20026;-55
2021/07/10 06:58:38;;;;;;;35.88;26.00;;;18.60;99.90;;;;;;5032589;28;20546;-55
2021/07/10 07:01:04;;;;;;;32.38;24.58;;;18.60;99.90;;;;;;5033760;28;20421;-54
2021/07/10 07:03:31;;;;;;;36.05;24.92;;;18.50;99.90;;;;;;5033704;28;20024;-54
2021/07/10 07:05:57;;;;;;;33.17;24.50;;;18.60;99.90;;;;;;5033451;28;20052;-54
2021/07/10 07:08:23;;;;;;;30.33;24.17;;;18.50;99.90;;;;;;5033468;28;20487;-56
2021/07/10 07:10:48;;;;;;;33.40;23.80;;;18.50;99.90;;;;;;5034053;28;20462;-55
2021/07/10 07:13:14;;;;;;;35.38;24.25;;;18.40;99.90;;;;;;5032312;28;20029;-55
2021/07/10 07:15:40;;;;;;;32.28;23.95;;;18.50;99.90;;;;;;5033376;28;20033;-55
2021/07/10 07:18:05;;;;;;;31.67;24.42;;;18.60;99.90;;;;;;5033272;28;20034;-55
2021/07/10 07:20:31;;;;;;;32.88;23.75;;;18.80;99.90;;;;;;5033388;28;20108;-55
2021/07/10 07:22:57;;;;;;;32.50;24.17;;;19.00;99.90;;;;;;5032293;28;20439;-55
2021/07/10 07:25:23;;;;;;;28.30;22.60;;;19.40;99.90;;;;;;5031770;28;20671;-54
2021/07/10 07:27:50;;;;;;;29.80;22.98;;;19.60;99.90;;;;;;5033179;28;20068;-56
2021/07/10 07:30:17;;;;;;;27.52;21.67;;;19.80;99.90;;;;;;5033117;28;20036;-55
2021/07/10 07:32:43;;;;;;;27.25;21.55;;;19.70;99.90;;;;;;5033002;28;20049;-54
2021/07/10 07:35:13;;;;;;;26.17;19.95;;;19.80;99.90;;;;;;5033111;28;20525;-55
2021/07/10 07:37:39;;;;;;;28.48;21.38;;;20.30;99.90;;;;;;5033096;28;20088;-55
2021/07/10 07:40:07;;;;;;;27.27;20.40;;;20.60;99.90;;;;;;5032791;28;20109;-55
2021/07/10 07:42:44;;;;;;;25.02;19.25;;;20.80;99.90;;;;;;5032972;28;20022;-55
2021/07/10 07:45:10;;;;;;;25.13;20.30;;;20.90;99.90;;;;;;5033146;28;20478;-55
2021/07/10 07:47:37;;;;;;;31.27;19.58;;;21.20;99.90;;;;;;5032868;28;20049;-54
2021/07/10 07:50:05;;;;;;;24.55;18.08;;;21.70;99.90;;;;;;5032861;28;20091;-55
2021/07/10 07:52:31;;;;;;;26.70;18.67;;;22.10;99.90;;;;;;5032882;28;20030;-55
2021/07/10 07:54:57;;;;;;;22.83;18.10;;;22.70;99.90;;;;;;5033012;28;20037;-55
2021/07/10 07:57:22;;;;;;;20.50;17.73;;;23.10;99.90;;;;;;5032995;28;20597;-54
2021/07/10 07:59:48;;;;;;;20.63;17.00;;;23.60;99.90;;;;;;5032292;28;20482;-54
2021/07/10 08:02:13;;;;;;;21.85;17.25;;;23.70;99.90;;;;;;5032516;28;20083;-55
2021/07/10 08:04:39;;;;;;;21.98;18.33;;;23.60;99.90;;;;;;5032557;28;20030;-55
2021/07/10 08:07:05;;;;;;;22.65;17.45;;;23.40;99.90;;;;;;5032611;28;20029;-55
2021/07/10 08:09:31;;;;;;;23.25;17.83;;;23.40;99.90;;;;;;5032428;28;20025;-55
2021/07/10 08:11:57;;;;;;;23.88;18.38;;;23.50;99.90;;;;;;5032553;28;20021;-55
2021/07/10 08:14:23;;;;;;;22.90;17.23;;;23.20;99.90;;;;;;5032363;28;20870;-54
2021/07/10 08:16:50;;;;;;;26.95;17.75;;;22.90;99.90;;;;;;5032282;28;20021;-54
2021/07/10 08:19:16;;;;;;;21.65;16.80;;;23.40;99.90;;;;;;5032089;28;20385;-55
2021/07/10 08:21:42;;;;;;;21.88;16.45;;;23.90;99.90;;;;;;5032033;28;20068;-54
2021/07/10 08:24:08;;;;;;;22.48;17.25;;;24.20;99.90;;;;;;5030853;28;20041;-54
2021/07/10 08:26:33;;;;;;;23.38;16.83;;;24.00;99.90;;;;;;5031889;28;20018;-54
2021/07/10 08:29:00;;;;;;;20.23;16.85;;;24.30;99.90;;;;;;5032081;28;20025;-54
2021/07/10 08:31:26;;;;;;;20.70;17.20;;;24.40;99.90;;;;;;5031866;28;20047;-55
2021/07/10 08:33:52;;;;;;;22.02;16.10;;;24.60;99.90;;;;;;5031763;28;20046;-55
2021/07/10 08:36:18;;;;;;;18.05;13.93;;;24.60;99.90;;;;;;5031473;28;20025;-54
2021/07/10 08:38:44;;;;;;;17.17;14.07;;;24.60;99.90;;;;;;5030981;28;20056;-54
2021/07/10 08:41:11;;;;;;;17.77;13.20;;;24.50;99.90;;;;;;5031702;28;20095;-54
2021/07/10 08:43:39;;;;;;;18.30;14.57;;;24.90;99.90;;;;;;5031832;28;20017;-55
2021/07/10 08:46:06;;;;;;;17.63;13.73;;;25.40;99.90;;;;;;5030291;28;20104;-54
2021/07/10 08:48:34;;;;;;;19.30;14.73;;;25.50;99.90;;;;;;5031894;28;20455;-54
2021/07/10 08:51:05;;;;;;;17.77;13.77;;;25.30;99.90;;;;;;5031368;28;20033;-54
2021/07/10 08:53:31;;;;;;;16.92;11.70;;;25.10;99.90;;;;;;5031645;28;20037;-54
2021/07/10 08:55:57;;;;;;;17.52;12.82;;;24.50;99.90;;;;;;5031452;28;20076;-54
2021/07/10 08:58:23;;;;;;;19.83;12.20;;;24.20;99.90;;;;;;5031312;28;20061;-54
2021/07/10 09:00:50;;;;;;;15.30;11.25;;;24.10;99.90;;;;;;5031425;28;20043;-54
2021/07/10 09:03:16;;;;;;;14.45;11.15;;;23.70;99.90;;;;;;5031433;28;20021;-54
2021/07/10 09:05:42;;;;;;;16.35;11.30;;;23.30;99.90;;;;;;5029967;28;20025;-54
2021/07/10 09:08:24;;;;;;;14.43;11.38;;;22.60;99.90;;;;;;5031784;28;20105;-54
2021/07/10 09:10:54;;;;;;;14.77;11.50;;;22.30;99.90;;;;;;5031455;28;20536;-54
2021/07/10 09:13:22;;;;;;;15.73;11.77;;;22.40;99.90;;;;;;5031736;28;20037;-54
2021/07/10 09:15:48;;;;;;;12.77;10.95;;;22.70;99.90;;;;;;5031247;28;20282;-54
2021/07/10 09:18:15;;;;;;;15.68;10.95;;;23.00;99.90;;;;;;5031057;28;20386;-54
2021/07/10 09:20:43;;;;;;;15.13;10.30;;;23.20;99.90;;;;;;5030934;28;20445;-54
2021/07/10 09:23:39;;;;;;;14.55;10.52;;;22.90;99.90;;;;;;5031174;28;20029;-54
2021/07/10 09:26:33;;;;;;;11.27;9.32;;;23.00;99.90;;;;;;5031006;28;20025;-54
2021/07/10 09:29:10;;;;;;;14.07;9.98;;;23.20;99.90;;;;;;5027186;28;20052;-53
2021/07/10 09:31:42;;;;;;;14.65;9.90;;;23.90;99.90;;;;;;5031127;28;20021;-54
2021/07/10 09:34:12;;;;;;;12.18;9.43;;;23.60;99.90;;;;;;5031147;28;20053;-54
2021/07/10 09:36:53;;;;;;;12.85;9.02;;;23.40;99.90;;;;;;5031257;28;20032;-55
2021/07/10 09:39:19;;;;;;;12.23;9.20;;;23.60;99.90;;;;;;5031539;28;20528;-54
2021/07/10 09:41:45;;;;;;;10.13;8.85;;;23.60;99.90;;;;;;5029293;28;20040;-54
2021/07/10 09:44:15;;;;;;;13.30;8.85;;;23.40;99.90;;;;;;5030954;28;20022;-55
2021/07/10 09:46:41;;;;;;;11.48;8.50;;;23.00;99.90;;;;;;5030913;28;20025;-54
2021/07/10 09:49:21;;;;;;;10.65;8.38;;;22.60;99.90;;;;;;5033282;28;20072;-55
2021/07/10 09:51:48;;;;;;;13.07;8.43;;;22.90;99.90;;;;;;5035098;28;20032;-54
2021/07/10 09:54:14;;;;;;;11.57;7.68;;;23.50;99.90;;;;;;5035292;28;20021;-55
2021/07/10 09:57:00;;;;;;;11.57;7.20;;;23.40;99.90;;;;;;5035332;28;20036;-54
2021/07/10 09:59:25;;;;;;;10.52;6.97;;;23.10;99.90;;;;;;5034945;28;20505;-54
2021/07/10 10:01:52;;;;;;;9.32;7.85;;;23.00;99.90;;;;;;5034977;28;20021;-54
2021/07/10 10:04:26;;;;;;;11.85;7.53;;;22.70;99.90;;;;;;5034851;28;20112;-54
2021/07/10 10:06:54;;;;;;;11.73;7.05;;;22.70;99.90;;;;;;5034788;28;20021;-54
2021/07/10 10:09:22;;;;;;;8.27;6.43;;;22.60;99.90;;;;;;5034738;28;20025;-53
2021/07/10 10:11:52;;;;;;;10.38;6.57;;;22.90;99.90;;;;;;5034620;28;20386;-53
2021/07/10 10:14:18;;;;;;;11.43;7.03;;;22.80;99.90;;;;;;5034799;28;20026;-54
2021/07/10 10:16:46;;;;;;;8.75;6.47;;;22.80;99.90;;;;;;5034334;28;20025;-54
2021/07/10 10:19:32;;;;;;;8.88;5.82;;;23.20;99.90;;;;;;5034481;28;20025;-54
2021/07/10 10:22:00;;;;;;;9.68;6.75;;;23.90;99.90;;;;;;5034454;28;20255;-54
2021/07/10 10:24:27;;;;;;;7.68;6.03;;;23.70;99.90;;;;;;5034502;28;20029;-54
2021/07/10 10:26:53;;;;;;;7.85;6.18;;;23.60;99.90;;;;;;5034119;28;20398;-54
2021/07/10 10:29:22;;;;;;;7.78;5.65;;;24.10;99.90;;;;;;5034509;28;20090;-54
2021/07/10 10:31:49;;;;;;;6.35;5.22;;;23.90;99.90;;;;;;5034323;28;20025;-54
2021/07/10 10:34:15;;;;;;;7.55;5.22;;;23.70;99.90;;;;;;5034082;28;20064;-54
2021/07/10 10:36:44;;;;;;;6.00;5.38;;;23.90;99.90;;;;;;5034177;28;20030;-55
2021/07/10 10:39:22;;;;;;;6.82;5.10;;;23.80;99.90;;;;;;5034067;28;20036;-54
2021/07/10 10:41:51;;;;;;;6.68;5.07;;;24.30;99.90;;;;;;5033851;28;20060;-54
2021/07/10 10:44:18;;;;;;;10.40;5.00;;;24.40;99.90;;;;;;5034160;28;20478;-54
2021/07/10 10:46:54;;;;;;;16.42;6.20;;;24.60;99.90;;;;;;5033962;28;20056;-55
2021/07/10 10:49:33;;;;;;;19.70;5.68;;;25.40;99.90;;;;;;5033952;28;20496;-54
2021/07/10 10:52:29;;;;;;;5.25;4.75;;;25.80;99.90;;;;;;5033783;28;20021;-54
2021/07/10 10:55:04;;;;;;;4.75;4.13;;;25.60;99.90;;;;;;5034261;28;20104;-54
2021/07/10 10:57:33;;;;;;;5.78;4.75;;;25.40;99.90;;;;;;5033702;28;20029;-54
2021/07/10 10:59:59;;;;;;;4.97;4.30;;;24.90;99.90;;;;;;5032861;28;20021;-53
2021/07/10 11:02:25;;;;;;;6.30;4.55;;;24.90;99.90;;;;;;5033796;28;20037;-54
2021/07/10 11:04:55;;;;;;;7.45;5.20;;;24.70;99.90;;;;;;5033678;28;20433;-53
2021/07/10 11:07:21;;;;;;;7.00;4.93;;;24.50;99.90;;;;;;5033388;28;20021;-53
2021/07/10 11:10:05;;;;;;;6.65;4.90;;;24.20;99.90;;;;;;5033553;28;20041;-53
2021/07/10 11:12:46;;;;;;;5.00;4.50;;;23.70;99.90;;;;;;5032117;28;20383;-54
2021/07/10 11:15:27;;;;;;;6.72;4.68;;;23.50;99.90;;;;;;5033547;28;20025;-55
2021/07/10 11:17:52;;;;;;;5.78;4.03;;;23.50;99.90;;;;;;5033809;28;20471;-54
2021/07/10 11:20:47;;;;;;;5.57;4.30;;;23.80;99.90;;;;;;5033381;28;20025;-54
2021/07/10 11:23:35;;;;;;;4.65;4.07;;;23.90;99.90;;;;;;5032089;28;20414;-54
2021/07/10 11:26:06;;;;;;;4.38;3.95;;;23.90;99.90;;;;;;5033172;28;20022;-54
2021/07/10 11:28:31;;;;;;;5.45;4.22;;;24.00;99.90;;;;;;5033283;28;20458;-54
2021/07/10 11:31:06;;;;;;;5.57;4.30;;;24.20;99.90;;;;;;5033068;28;20041;-54
2021/07/10 11:33:57;;;;;;;4.45;3.67;;;24.40;99.90;;;;;;5031550;28;20049;-53
2021/07/10 11:36:38;;;;;;;6.38;4.20;;;25.10;99.90;;;;;;5033203;28;20018;-54
2021/07/10 11:39:32;;;;;;;8.05;4.07;;;25.20;99.90;;;;;;5033097;28;20029;-54
2021/07/10 11:42:00;;;;;;;6.07;3.97;;;25.40;99.90;;;;;;5033049;28;20026;-54
2021/07/10 11:44:30;;;;;;;4.63;3.60;;;25.60;99.90;;;;;;5033117;28;20026;-54
2021/07/10 11:46:55;;;;;;;7.10;4.93;;;25.30;99.90;;;;;;5032800;28;20026;-53
2021/07/10 11:49:36;;;;;;;6.55;4.57;;;24.60;99.90;;;;;;5032883;28;20025;-54
2021/07/10 11:52:05;;;;;;;5.55;4.28;;;23.90;99.90;;;;;;5032893;28;20029;-54
2021/07/10 11:54:31;;;;;;;6.53;3.85;;;23.90;99.90;;;;;;5033002;28;20056;-54
2021/07/10 11:56:57;;;;;;;5.60;3.83;;;24.10;99.90;;;;;;5032470;28;20589;-54
2021/07/10 11:59:23;;;;;;;5.63;3.97;;;24.40;99.90;;;;;;5032556;28;20030;-54
2021/07/10 12:01:49;;;;;;;6.47;4.50;;;24.60;99.90;;;;;;5032378;28;20025;-54
2021/07/10 12:04:15;;;;;;;5.55;4.20;;;24.60;99.90;;;;;;5031266;28;20460;-54
2021/07/10 12:06:41;;;;;;;6.57;3.95;;;24.20;99.90;;;;;;5032239;28;20029;-54
2021/07/10 12:09:07;;;;;;;6.28;3.97;;;24.20;99.90;;;;;;5032213;28;20071;-54
2021/07/10 12:11:33;;;;;;;7.28;4.03;;;24.40;99.90;;;;;;5031680;28;20156;-54
2021/07/10 12:14:06;;;;;;;5.82;4.50;;;24.50;99.90;;;;;;5031906;28;20040;-54
2021/07/10 12:16:33;;;;;;;6.93;4.60;;;24.50;99.90;;;;;;5032144;28;20029;-55
2021/07/10 12:18:59;;;;;;;4.88;4.13;;;24.10;99.90;;;;;;5032189;28;20025;-54
2021/07/10 12:21:25;;;;;;;4.95;4.20;;;23.70;99.90;;;;;;5031943;28;20065;-54
2021/07/10 12:23:55;;;;;;;6.75;4.55;;;23.40;99.90;;;;;;5032407;28;20122;-54
2021/07/10 12:26:23;;;;;;;5.68;4.55;;;23.30;99.90;;;;;;5032023;28;20029;-54
2021/07/10 12:28:53;;;;;;;6.47;4.47;;;23.00;99.90;;;;;;5031936;28;20029;-53
2021/07/10 12:31:41;;;;;;;6.18;4.57;;;22.60;99.90;;;;;;5031960;28;20030;-53
2021/07/10 12:34:09;;;;;;;6.32;4.95;;;22.30;99.90;;;;;;5031876;28;20056;-53